EDDF

Frankfurt am Main International Airport

Frankfurt-am-Main, Germany
TAF EDDF 171700Z 1718/1824 03010KT CAVOK PROB30 TEMPO 1812/1815 04015G25KT
Issued Valid From Valid To
Nov-17 @ 17:00 UTC
(5 hours ago)
Nov-17 @ 18:00 UTC
(4 hours ago)
Nov-19 @ 00:00 UTC
(-1 days ago)
Nov-17 @ 18:00 to Nov-19 @ 00:00
TAF EDDF 171700Z 1718/1824 03010KT CAVOK
Wind Visibility Clouds Conditions
30° at 10 knots 10,000+ meters
  • No significant clouds
Temporary  (Probability 30%) Nov-18 @ 12:00 to Nov-18 @ 15:00
PROB30 TEMPO 1812/1815 04015G25KT
Wind
40° at 15 knots
 Gusting to 25 knots
TAF EDDF 171700Z 1718/1824 03010KT CAVOK PROB30 TEMPO 1812/1815 04015G25KT
Issued Nov-17 @ 17:00 UTC
(5 hours ago)
Valid From Nov-17 @ 18:00 UTC
(4 hours ago)
Valid To Nov-19 @ 00:00 UTC
(-1 days ago)
Nov-17 @ 18:00 - Nov-19 @ 00:00
Wind Visibility
30° at 10 knots 10,000+ meters
Clouds
  • No significant clouds
Conditions
Probability 30% Temporary Nov-18 @ 12:00 - Nov-18 @ 15:00
Wind
40° at 15 knots
 Gusting to 25 knots